sensor_id;sensor_type;location;lat;lon;timestamp;P1;durP1;ratioP1;P2;durP2;ratioP2
9997;SDS011;5038;53.064;8.624;2023-12-28T00:00:04;4.67;;;4.23;;
9997;SDS011;5038;53.064;8.624;2023-12-28T00:02:34;4.97;;;4.43;;
9997;SDS011;5038;53.064;8.624;2023-12-28T00:05:02;5.80;;;4.40;;
9997;SDS011;5038;53.064;8.624;2023-12-28T00:07:31;5.43;;;3.80;;
9997;SDS011;5038;53.064;8.624;2023-12-28T00:10:01;6.43;;;4.50;;
9997;SDS011;5038;53.064;8.624;2023-12-28T00:12:30;4.50;;;4.00;;
9997;SDS011;5038;53.064;8.624;2023-12-28T00:14:58;7.20;;;3.97;;
9997;SDS011;5038;53.064;8.624;2023-12-28T00:17:26;4.97;;;4.17;;
9997;SDS011;5038;53.064;8.624;2023-12-28T00:19:55;4.83;;;4.00;;
9997;SDS011;5038;53.064;8.624;2023-12-28T00:22:23;4.30;;;3.50;;
9997;SDS011;5038;53.064;8.624;2023-12-28T00:24:51;4.03;;;3.60;;
9997;SDS011;5038;53.064;8.624;2023-12-28T00:27:21;5.83;;;4.20;;
9997;SDS011;5038;53.064;8.624;2023-12-28T00:29:49;6.63;;;4.20;;
9997;SDS011;5038;53.064;8.624;2023-12-28T00:32:18;4.40;;;3.97;;
9997;SDS011;5038;53.064;8.624;2023-12-28T00:34:46;5.93;;;4.30;;
9997;SDS011;5038;53.064;8.624;2023-12-28T00:37:14;5.33;;;4.00;;
9997;SDS011;5038;53.064;8.624;2023-12-28T00:39:43;4.37;;;3.97;;
9997;SDS011;5038;53.064;8.624;2023-12-28T00:42:13;4.87;;;3.80;;
9997;SDS011;5038;53.064;8.624;2023-12-28T00:44:43;4.50;;;4.07;;
9997;SDS011;5038;53.064;8.624;2023-12-28T00:47:11;4.70;;;4.00;;
9997;SDS011;5038;53.064;8.624;2023-12-28T00:49:39;4.20;;;3.63;;
9997;SDS011;5038;53.064;8.624;2023-12-28T00:52:08;3.97;;;3.57;;
9997;SDS011;5038;53.064;8.624;2023-12-28T00:54:36;3.90;;;3.60;;
9997;SDS011;5038;53.064;8.624;2023-12-28T00:57:05;5.03;;;4.07;;
9997;SDS011;5038;53.064;8.624;2023-12-28T00:59:33;4.60;;;3.53;;
9997;SDS011;5038;53.064;8.624;2023-12-28T01:02:03;4.73;;;3.90;;
9997;SDS011;5038;53.064;8.624;2023-12-28T01:04:31;4.10;;;3.70;;
9997;SDS011;5038;53.064;8.624;2023-12-28T01:07:01;5.70;;;3.80;;
9997;SDS011;5038;53.064;8.624;2023-12-28T01:09:32;4.00;;;3.70;;
9997;SDS011;5038;53.064;8.624;2023-12-28T01:12:02;3.73;;;3.37;;
9997;SDS011;5038;53.064;8.624;2023-12-28T01:14:32;5.37;;;4.33;;
9997;SDS011;5038;53.064;8.624;2023-12-28T01:17:01;4.33;;;3.67;;
9997;SDS011;5038;53.064;8.624;2023-12-28T01:19:30;3.90;;;3.43;;
9997;SDS011;5038;53.064;8.624;2023-12-28T01:21:59;4.80;;;3.60;;
9997;SDS011;5038;53.064;8.624;2023-12-28T01:24:27;3.80;;;3.50;;
9997;SDS011;5038;53.064;8.624;2023-12-28T01:26:56;4.83;;;3.60;;
9997;SDS011;5038;53.064;8.624;2023-12-28T01:29:24;3.80;;;3.20;;
9997;SDS011;5038;53.064;8.624;2023-12-28T01:31:52;4.23;;;3.70;;
9997;SDS011;5038;53.064;8.624;2023-12-28T01:34:22;4.30;;;3.97;;
9997;SDS011;5038;53.064;8.624;2023-12-28T01:36:50;4.90;;;4.07;;
9997;SDS011;5038;53.064;8.624;2023-12-28T01:39:19;5.40;;;3.57;;
9997;SDS011;5038;53.064;8.624;2023-12-28T01:41:47;3.80;;;3.20;;
9997;SDS011;5038;53.064;8.624;2023-12-28T01:44:15;4.33;;;3.93;;
9997;SDS011;5038;53.064;8.624;2023-12-28T01:46:44;4.37;;;3.40;;
9997;SDS011;5038;53.064;8.624;2023-12-28T01:49:13;3.90;;;3.43;;
9997;SDS011;5038;53.064;8.624;2023-12-28T01:51:43;4.67;;;4.00;;
9997;SDS011;5038;53.064;8.624;2023-12-28T01:54:13;4.47;;;4.00;;
9997;SDS011;5038;53.064;8.624;2023-12-28T01:56:42;5.03;;;4.40;;
9997;SDS011;5038;53.064;8.624;2023-12-28T01:59:10;6.47;;;4.23;;
9997;SDS011;5038;53.064;8.624;2023-12-28T02:01:39;4.13;;;3.57;;
9997;SDS011;5038;53.064;8.624;2023-12-28T02:04:07;4.73;;;4.20;;
9997;SDS011;5038;53.064;8.624;2023-12-28T02:06:36;4.40;;;3.70;;
9997;SDS011;5038;53.064;8.624;2023-12-28T02:09:06;4.63;;;3.83;;
9997;SDS011;5038;53.064;8.624;2023-12-28T02:11:34;6.67;;;3.80;;
9997;SDS011;5038;53.064;8.624;2023-12-28T02:14:03;4.00;;;3.60;;
9997;SDS011;5038;53.064;8.624;2023-12-28T02:16:32;4.60;;;4.00;;
9997;SDS011;5038;53.064;8.624;2023-12-28T02:19:13;4.70;;;4.20;;
9997;SDS011;5038;53.064;8.624;2023-12-28T02:21:47;4.10;;;3.70;;
9997;SDS011;5038;53.064;8.624;2023-12-28T02:24:18;4.40;;;4.07;;
9997;SDS011;5038;53.064;8.624;2023-12-28T02:26:48;4.90;;;4.07;;
9997;SDS011;5038;53.064;8.624;2023-12-28T02:29:18;4.80;;;4.00;;
9997;SDS011;5038;53.064;8.624;2023-12-28T02:31:49;4.47;;;3.70;;
9997;SDS011;5038;53.064;8.624;2023-12-28T02:34:26;5.00;;;3.97;;
9997;SDS011;5038;53.064;8.624;2023-12-28T02:36:58;6.40;;;4.40;;
9997;SDS011;5038;53.064;8.624;2023-12-28T02:39:27;4.47;;;4.07;;
9997;SDS011;5038;53.064;8.624;2023-12-28T02:41:59;5.60;;;4.30;;
9997;SDS011;5038;53.064;8.624;2023-12-28T02:44:27;6.73;;;4.40;;
9997;SDS011;5038;53.064;8.624;2023-12-28T02:46:55;5.07;;;4.10;;
9997;SDS011;5038;53.064;8.624;2023-12-28T02:49:25;7.53;;;4.27;;
9997;SDS011;5038;53.064;8.624;2023-12-28T02:51:53;4.83;;;4.33;;
9997;SDS011;5038;53.064;8.624;2023-12-28T02:54:21;4.73;;;4.33;;
9997;SDS011;5038;53.064;8.624;2023-12-28T02:56:50;5.20;;;4.30;;
9997;SDS011;5038;53.064;8.624;2023-12-28T02:59:19;4.63;;;4.13;;
9997;SDS011;5038;53.064;8.624;2023-12-28T03:01:48;4.93;;;4.43;;
9997;SDS011;5038;53.064;8.624;2023-12-28T03:04:17;4.40;;;4.00;;
9997;SDS011;5038;53.064;8.624;2023-12-28T03:06:47;6.00;;;4.30;;
9997;SDS011;5038;53.064;8.624;2023-12-28T03:09:17;5.50;;;4.60;;
9997;SDS011;5038;53.064;8.624;2023-12-28T03:11:45;5.10;;;4.60;;
9997;SDS011;5038;53.064;8.624;2023-12-28T03:14:15;4.67;;;4.23;;
9997;SDS011;5038;53.064;8.624;2023-12-28T03:16:44;4.43;;;3.80;;
9997;SDS011;5038;53.064;8.624;2023-12-28T03:19:13;4.23;;;3.83;;
9997;SDS011;5038;53.064;8.624;2023-12-28T03:21:41;4.70;;;4.30;;
9997;SDS011;5038;53.064;8.624;2023-12-28T03:24:09;4.93;;;4.43;;
9997;SDS011;5038;53.064;8.624;2023-12-28T03:26:38;4.30;;;3.90;;
9997;SDS011;5038;53.064;8.624;2023-12-28T03:29:07;5.73;;;4.70;;
9997;SDS011;5038;53.064;8.624;2023-12-28T03:31:38;4.93;;;4.43;;
9997;SDS011;5038;53.064;8.624;2023-12-28T03:34:08;5.37;;;4.43;;
9997;SDS011;5038;53.064;8.624;2023-12-28T03:36:37;4.60;;;4.10;;
9997;SDS011;5038;53.064;8.624;2023-12-28T03:39:05;6.07;;;4.03;;
9997;SDS011;5038;53.064;8.624;2023-12-28T03:41:33;5.30;;;4.80;;
9997;SDS011;5038;53.064;8.624;2023-12-28T03:44:02;4.60;;;4.20;;
9997;SDS011;5038;53.064;8.624;2023-12-28T03:46:30;6.27;;;4.80;;
9997;SDS011;5038;53.064;8.624;2023-12-28T03:48:58;5.60;;;4.93;;
9997;SDS011;5038;53.064;8.624;2023-12-28T03:51:28;5.60;;;4.40;;
9997;SDS011;5038;53.064;8.624;2023-12-28T03:53:56;5.67;;;4.60;;
9997;SDS011;5038;53.064;8.624;2023-12-28T03:56:25;4.47;;;4.07;;
9997;SDS011;5038;53.064;8.624;2023-12-28T03:58:54;5.30;;;4.30;;
9997;SDS011;5038;53.064;8.624;2023-12-28T04:01:22;6.50;;;4.90;;
9997;SDS011;5038;53.064;8.624;2023-12-28T04:03:51;4.73;;;4.33;;
9997;SDS011;5038;53.064;8.624;2023-12-28T04:06:19;4.90;;;4.50;;
9997;SDS011;5038;53.064;8.624;2023-12-28T04:08:49;5.90;;;4.67;;
9997;SDS011;5038;53.064;8.624;2023-12-28T04:11:17;5.30;;;4.80;;
9997;SDS011;5038;53.064;8.624;2023-12-28T04:13:45;5.10;;;4.60;;
9997;SDS011;5038;53.064;8.624;2023-12-28T04:16:14;5.13;;;4.63;;
9997;SDS011;5038;53.064;8.624;2023-12-28T04:18:42;5.60;;;5.00;;
9997;SDS011;5038;53.064;8.624;2023-12-28T04:21:11;6.80;;;5.17;;
9997;SDS011;5038;53.064;8.624;2023-12-28T04:23:40;5.53;;;4.73;;
9997;SDS011;5038;53.064;8.624;2023-12-28T04:26:10;5.73;;;5.20;;
9997;SDS011;5038;53.064;8.624;2023-12-28T04:28:38;7.10;;;4.80;;
9997;SDS011;5038;53.064;8.624;2023-12-28T04:31:07;5.43;;;4.93;;
9997;SDS011;5038;53.064;8.624;2023-12-28T04:33:36;6.07;;;4.80;;
9997;SDS011;5038;53.064;8.624;2023-12-28T04:36:04;5.37;;;4.87;;
9997;SDS011;5038;53.064;8.624;2023-12-28T04:38:33;5.53;;;4.30;;
9997;SDS011;5038;53.064;8.624;2023-12-28T04:41:02;6.50;;;4.50;;
9997;SDS011;5038;53.064;8.624;2023-12-28T04:43:32;6.43;;;5.00;;
9997;SDS011;5038;53.064;8.624;2023-12-28T04:46:02;7.80;;;5.13;;
9997;SDS011;5038;53.064;8.624;2023-12-28T04:48:31;5.73;;;5.13;;
9997;SDS011;5038;53.064;8.624;2023-12-28T04:51:01;6.13;;;4.40;;
9997;SDS011;5038;53.064;8.624;2023-12-28T04:53:30;6.53;;;5.57;;
9997;SDS011;5038;53.064;8.624;2023-12-28T04:56:00;4.70;;;4.30;;
9997;SDS011;5038;53.064;8.624;2023-12-28T04:58:28;5.43;;;4.60;;
9997;SDS011;5038;53.064;8.624;2023-12-28T05:00:58;5.23;;;4.73;;
9997;SDS011;5038;53.064;8.624;2023-12-28T05:03:29;7.00;;;4.20;;
9997;SDS011;5038;53.064;8.624;2023-12-28T05:05:57;5.27;;;4.27;;
9997;SDS011;5038;53.064;8.624;2023-12-28T05:08:25;5.53;;;5.00;;
9997;SDS011;5038;53.064;8.624;2023-12-28T05:10:54;5.60;;;4.97;;
9997;SDS011;5038;53.064;8.624;2023-12-28T05:13:22;6.10;;;4.70;;
9997;SDS011;5038;53.064;8.624;2023-12-28T05:15:50;7.17;;;4.10;;
9997;SDS011;5038;53.064;8.624;2023-12-28T05:18:20;4.97;;;4.47;;
9997;SDS011;5038;53.064;8.624;2023-12-28T05:20:48;5.90;;;4.90;;
9997;SDS011;5038;53.064;8.624;2023-12-28T05:23:17;5.73;;;5.00;;
9997;SDS011;5038;53.064;8.624;2023-12-28T05:25:45;7.47;;;4.63;;
9997;SDS011;5038;53.064;8.624;2023-12-28T05:28:14;5.83;;;5.03;;
9997;SDS011;5038;53.064;8.624;2023-12-28T05:30:43;4.70;;;4.10;;
9997;SDS011;5038;53.064;8.624;2023-12-28T05:33:11;4.70;;;4.20;;
9997;SDS011;5038;53.064;8.624;2023-12-28T05:35:41;5.93;;;4.90;;
9997;SDS011;5038;53.064;8.624;2023-12-28T05:38:09;5.03;;;4.20;;
9997;SDS011;5038;53.064;8.624;2023-12-28T05:40:37;5.40;;;4.40;;
9997;SDS011;5038;53.064;8.624;2023-12-28T05:43:06;4.40;;;4.00;;
9997;SDS011;5038;53.064;8.624;2023-12-28T05:45:34;6.20;;;5.00;;
9997;SDS011;5038;53.064;8.624;2023-12-28T05:48:02;6.00;;;4.57;;
9997;SDS011;5038;53.064;8.624;2023-12-28T05:50:32;5.70;;;5.07;;
9997;SDS011;5038;53.064;8.624;2023-12-28T05:53:01;5.77;;;4.50;;
9997;SDS011;5038;53.064;8.624;2023-12-28T05:55:30;6.03;;;4.50;;
9997;SDS011;5038;53.064;8.624;2023-12-28T05:57:58;4.47;;;4.00;;
9997;SDS011;5038;53.064;8.624;2023-12-28T06:00:27;5.47;;;4.20;;
9997;SDS011;5038;53.064;8.624;2023-12-28T06:02:55;6.23;;;4.30;;
9997;SDS011;5038;53.064;8.624;2023-12-28T06:05:23;6.00;;;4.70;;
9997;SDS011;5038;53.064;8.624;2023-12-28T06:07:52;4.50;;;4.10;;
9997;SDS011;5038;53.064;8.624;2023-12-28T06:10:21;6.73;;;4.73;;
9997;SDS011;5038;53.064;8.624;2023-12-28T06:12:50;6.70;;;4.10;;
9997;SDS011;5038;53.064;8.624;2023-12-28T06:15:19;6.07;;;4.10;;
9997;SDS011;5038;53.064;8.624;2023-12-28T06:17:47;6.20;;;4.43;;
9997;SDS011;5038;53.064;8.624;2023-12-28T06:20:15;6.03;;;4.20;;
9997;SDS011;5038;53.064;8.624;2023-12-28T06:22:44;6.60;;;4.13;;
9997;SDS011;5038;53.064;8.624;2023-12-28T06:25:15;5.80;;;4.70;;
9997;SDS011;5038;53.064;8.624;2023-12-28T06:27:45;5.13;;;4.00;;
9997;SDS011;5038;53.064;8.624;2023-12-28T06:30:13;5.80;;;4.53;;
9997;SDS011;5038;53.064;8.624;2023-12-28T06:32:42;6.30;;;4.50;;
9997;SDS011;5038;53.064;8.624;2023-12-28T06:35:10;7.37;;;4.83;;
9997;SDS011;5038;53.064;8.624;2023-12-28T06:37:38;5.53;;;4.10;;
9997;SDS011;5038;53.064;8.624;2023-12-28T06:40:07;5.43;;;3.43;;
9997;SDS011;5038;53.064;8.624;2023-12-28T06:42:36;6.80;;;3.90;;
9997;SDS011;5038;53.064;8.624;2023-12-28T06:45:06;5.87;;;3.70;;
9997;SDS011;5038;53.064;8.624;2023-12-28T06:47:35;6.90;;;4.20;;
9997;SDS011;5038;53.064;8.624;2023-12-28T06:50:04;6.60;;;3.93;;
9997;SDS011;5038;53.064;8.624;2023-12-28T06:52:34;6.17;;;4.03;;
9997;SDS011;5038;53.064;8.624;2023-12-28T06:55:02;6.33;;;4.33;;
9997;SDS011;5038;53.064;8.624;2023-12-28T06:57:31;7.63;;;4.20;;
9997;SDS011;5038;53.064;8.624;2023-12-28T06:59:59;7.20;;;3.93;;
9997;SDS011;5038;53.064;8.624;2023-12-28T07:02:30;6.80;;;4.17;;
9997;SDS011;5038;53.064;8.624;2023-12-28T07:04:59;7.90;;;3.90;;
9997;SDS011;5038;53.064;8.624;2023-12-28T07:07:27;9.23;;;4.33;;
9997;SDS011;5038;53.064;8.624;2023-12-28T07:09:55;6.40;;;3.40;;
9997;SDS011;5038;53.064;8.624;2023-12-28T07:12:24;5.70;;;3.70;;
9997;SDS011;5038;53.064;8.624;2023-12-28T07:14:52;6.27;;;4.30;;
9997;SDS011;5038;53.064;8.624;2023-12-28T07:17:20;7.07;;;3.40;;
9997;SDS011;5038;53.064;8.624;2023-12-28T07:19:50;8.17;;;3.70;;
9997;SDS011;5038;53.064;8.624;2023-12-28T07:22:19;6.00;;;3.53;;
9997;SDS011;5038;53.064;8.624;2023-12-28T07:24:47;8.10;;;4.03;;
9997;SDS011;5038;53.064;8.624;2023-12-28T07:27:15;9.17;;;3.50;;
9997;SDS011;5038;53.064;8.624;2023-12-28T07:29:43;9.23;;;4.13;;
9997;SDS011;5038;53.064;8.624;2023-12-28T07:32:12;8.40;;;3.80;;
9997;SDS011;5038;53.064;8.624;2023-12-28T07:34:41;9.80;;;4.57;;
9997;SDS011;5038;53.064;8.624;2023-12-28T07:37:11;9.33;;;3.90;;
9997;SDS011;5038;53.064;8.624;2023-12-28T07:39:39;6.67;;;3.30;;
9997;SDS011;5038;53.064;8.624;2023-12-28T07:42:07;6.33;;;3.27;;
9997;SDS011;5038;53.064;8.624;2023-12-28T07:44:36;9.13;;;3.20;;
9997;SDS011;5038;53.064;8.624;2023-12-28T07:47:04;7.23;;;3.50;;
9997;SDS011;5038;53.064;8.624;2023-12-28T07:49:35;6.47;;;3.40;;
9997;SDS011;5038;53.064;8.624;2023-12-28T07:52:04;10.87;;;3.57;;
9997;SDS011;5038;53.064;8.624;2023-12-28T07:54:34;8.30;;;3.27;;
9997;SDS011;5038;53.064;8.624;2023-12-28T07:57:02;8.17;;;3.60;;
9997;SDS011;5038;53.064;8.624;2023-12-28T07:59:31;11.60;;;3.60;;
9997;SDS011;5038;53.064;8.624;2023-12-28T08:01:59;7.03;;;3.43;;
9997;SDS011;5038;53.064;8.624;2023-12-28T08:04:28;9.17;;;3.63;;
9997;SDS011;5038;53.064;8.624;2023-12-28T08:06:56;8.70;;;3.53;;
9997;SDS011;5038;53.064;8.624;2023-12-28T08:09:25;10.77;;;3.67;;
9997;SDS011;5038;53.064;8.624;2023-12-28T08:11:55;8.03;;;3.30;;
9997;SDS011;5038;53.064;8.624;2023-12-28T08:14:23;8.70;;;3.67;;
9997;SDS011;5038;53.064;8.624;2023-12-28T08:16:51;6.30;;;2.60;;
9997;SDS011;5038;53.064;8.624;2023-12-28T08:19:20;8.27;;;3.37;;
9997;SDS011;5038;53.064;8.624;2023-12-28T08:21:48;6.03;;;3.00;;
9997;SDS011;5038;53.064;8.624;2023-12-28T08:24:17;8.37;;;3.37;;
9997;SDS011;5038;53.064;8.624;2023-12-28T08:26:45;6.77;;;3.23;;
9997;SDS011;5038;53.064;8.624;2023-12-28T08:29:14;6.23;;;3.40;;
9997;SDS011;5038;53.064;8.624;2023-12-28T08:31:44;10.10;;;3.97;;
9997;SDS011;5038;53.064;8.624;2023-12-28T08:34:17;7.40;;;2.77;;
9997;SDS011;5038;53.064;8.624;2023-12-28T08:36:45;8.20;;;3.27;;
9997;SDS011;5038;53.064;8.624;2023-12-28T08:39:14;7.10;;;2.77;;
9997;SDS011;5038;53.064;8.624;2023-12-28T08:41:42;8.60;;;3.20;;
9997;SDS011;5038;53.064;8.624;2023-12-28T08:44:10;8.97;;;3.57;;
9997;SDS011;5038;53.064;8.624;2023-12-28T08:46:40;10.33;;;3.87;;
9997;SDS011;5038;53.064;8.624;2023-12-28T08:49:08;8.30;;;3.33;;
9997;SDS011;5038;53.064;8.624;2023-12-28T08:51:37;7.37;;;2.87;;
9997;SDS011;5038;53.064;8.624;2023-12-28T08:54:10;6.37;;;3.00;;
9997;SDS011;5038;53.064;8.624;2023-12-28T08:56:38;10.50;;;3.60;;
9997;SDS011;5038;53.064;8.624;2023-12-28T08:59:06;9.03;;;3.50;;
9997;SDS011;5038;53.064;8.624;2023-12-28T09:01:35;10.10;;;3.30;;
9997;SDS011;5038;53.064;8.624;2023-12-28T09:04:05;7.77;;;3.23;;
9997;SDS011;5038;53.064;8.624;2023-12-28T09:06:33;8.10;;;3.60;;
9997;SDS011;5038;53.064;8.624;2023-12-28T09:09:02;8.63;;;3.53;;
9997;SDS011;5038;53.064;8.624;2023-12-28T09:11:30;8.10;;;3.10;;
9997;SDS011;5038;53.064;8.624;2023-12-28T09:13:59;8.90;;;3.80;;
9997;SDS011;5038;53.064;8.624;2023-12-28T09:16:27;7.37;;;3.60;;
9997;SDS011;5038;53.064;8.624;2023-12-28T09:18:56;8.50;;;3.23;;
9997;SDS011;5038;53.064;8.624;2023-12-28T09:21:26;9.57;;;3.77;;
9997;SDS011;5038;53.064;8.624;2023-12-28T09:23:54;6.17;;;2.80;;
9997;SDS011;5038;53.064;8.624;2023-12-28T09:26:22;8.43;;;3.80;;
9997;SDS011;5038;53.064;8.624;2023-12-28T09:28:51;5.73;;;3.33;;
9997;SDS011;5038;53.064;8.624;2023-12-28T09:31:19;8.10;;;3.37;;
9997;SDS011;5038;53.064;8.624;2023-12-28T09:33:47;8.77;;;3.07;;
9997;SDS011;5038;53.064;8.624;2023-12-28T09:36:16;7.30;;;3.50;;
9997;SDS011;5038;53.064;8.624;2023-12-28T09:38:46;6.33;;;3.20;;
9997;SDS011;5038;53.064;8.624;2023-12-28T09:41:15;7.57;;;3.50;;
9997;SDS011;5038;53.064;8.624;2023-12-28T09:43:45;10.50;;;4.10;;
9997;SDS011;5038;53.064;8.624;2023-12-28T09:46:23;9.07;;;3.90;;
9997;SDS011;5038;53.064;8.624;2023-12-28T09:48:53;9.83;;;3.60;;
9997;SDS011;5038;53.064;8.624;2023-12-28T09:51:23;6.53;;;3.07;;
9997;SDS011;5038;53.064;8.624;2023-12-28T09:53:54;12.50;;;3.80;;
9997;SDS011;5038;53.064;8.624;2023-12-28T09:56:23;10.70;;;3.67;;
9997;SDS011;5038;53.064;8.624;2023-12-28T09:58:55;8.33;;;3.80;;
9997;SDS011;5038;53.064;8.624;2023-12-28T10:01:25;9.90;;;4.00;;
9997;SDS011;5038;53.064;8.624;2023-12-28T10:03:54;7.67;;;3.40;;
9997;SDS011;5038;53.064;8.624;2023-12-28T10:06:22;10.03;;;3.27;;
9997;SDS011;5038;53.064;8.624;2023-12-28T10:08:51;13.27;;;3.60;;
9997;SDS011;5038;53.064;8.624;2023-12-28T10:11:20;7.37;;;3.70;;
9997;SDS011;5038;53.064;8.624;2023-12-28T10:13:50;10.07;;;3.53;;
9997;SDS011;5038;53.064;8.624;2023-12-28T10:16:19;8.37;;;2.80;;
9997;SDS011;5038;53.064;8.624;2023-12-28T10:18:47;10.60;;;3.93;;
9997;SDS011;5038;53.064;8.624;2023-12-28T10:21:16;7.30;;;3.37;;
9997;SDS011;5038;53.064;8.624;2023-12-28T10:23:44;20.03;;;4.93;;
9997;SDS011;5038;53.064;8.624;2023-12-28T10:26:12;9.37;;;3.60;;
9997;SDS011;5038;53.064;8.624;2023-12-28T10:28:42;9.90;;;3.70;;
9997;SDS011;5038;53.064;8.624;2023-12-28T10:31:11;11.53;;;4.57;;
9997;SDS011;5038;53.064;8.624;2023-12-28T10:33:40;10.23;;;3.90;;
9997;SDS011;5038;53.064;8.624;2023-12-28T10:36:09;10.23;;;3.40;;
9997;SDS011;5038;53.064;8.624;2023-12-28T10:38:38;10.90;;;3.50;;
9997;SDS011;5038;53.064;8.624;2023-12-28T10:41:07;7.80;;;3.20;;
9997;SDS011;5038;53.064;8.624;2023-12-28T10:43:39;7.23;;;3.47;;
9997;SDS011;5038;53.064;8.624;2023-12-28T10:46:18;18.27;;;4.27;;
9997;SDS011;5038;53.064;8.624;2023-12-28T10:48:52;8.00;;;3.03;;
9997;SDS011;5038;53.064;8.624;2023-12-28T10:51:25;6.97;;;3.30;;
9997;SDS011;5038;53.064;8.624;2023-12-28T10:53:59;13.77;;;4.10;;
9997;SDS011;5038;53.064;8.624;2023-12-28T10:56:35;8.97;;;3.27;;
9997;SDS011;5038;53.064;8.624;2023-12-28T10:59:13;11.40;;;3.83;;
9997;SDS011;5038;53.064;8.624;2023-12-28T11:01:47;8.53;;;4.13;;
9997;SDS011;5038;53.064;8.624;2023-12-28T11:04:24;6.40;;;3.10;;
9997;SDS011;5038;53.064;8.624;2023-12-28T11:06:59;9.60;;;3.97;;
9997;SDS011;5038;53.064;8.624;2023-12-28T11:09:30;9.00;;;3.97;;
9997;SDS011;5038;53.064;8.624;2023-12-28T11:11:59;11.50;;;3.47;;
9997;SDS011;5038;53.064;8.624;2023-12-28T11:14:31;9.60;;;3.93;;
9997;SDS011;5038;53.064;8.624;2023-12-28T11:17:01;12.33;;;3.93;;
9997;SDS011;5038;53.064;8.624;2023-12-28T11:19:30;14.20;;;3.47;;
9997;SDS011;5038;53.064;8.624;2023-12-28T11:22:01;10.20;;;3.60;;
9997;SDS011;5038;53.064;8.624;2023-12-28T11:24:30;11.50;;;3.80;;
9997;SDS011;5038;53.064;8.624;2023-12-28T11:27:00;10.90;;;4.00;;
9997;SDS011;5038;53.064;8.624;2023-12-28T11:29:35;10.53;;;3.60;;
9997;SDS011;5038;53.064;8.624;2023-12-28T11:32:04;9.90;;;3.40;;
9997;SDS011;5038;53.064;8.624;2023-12-28T11:34:33;12.70;;;4.17;;
9997;SDS011;5038;53.064;8.624;2023-12-28T11:37:03;10.70;;;4.47;;
9997;SDS011;5038;53.064;8.624;2023-12-28T11:39:34;12.03;;;3.80;;
9997;SDS011;5038;53.064;8.624;2023-12-28T11:42:04;9.47;;;3.50;;
9997;SDS011;5038;53.064;8.624;2023-12-28T11:44:38;10.17;;;4.47;;
9997;SDS011;5038;53.064;8.624;2023-12-28T11:47:11;11.70;;;3.70;;
9997;SDS011;5038;53.064;8.624;2023-12-28T11:49:40;15.07;;;4.07;;
9997;SDS011;5038;53.064;8.624;2023-12-28T11:52:09;11.50;;;4.47;;
9997;SDS011;5038;53.064;8.624;2023-12-28T11:54:38;9.37;;;4.20;;
9997;SDS011;5038;53.064;8.624;2023-12-28T11:57:16;13.43;;;4.07;;
9997;SDS011;5038;53.064;8.624;2023-12-28T11:59:46;12.13;;;4.10;;
9997;SDS011;5038;53.064;8.624;2023-12-28T12:02:15;12.70;;;4.37;;
9997;SDS011;5038;53.064;8.624;2023-12-28T12:04:44;9.67;;;3.30;;
9997;SDS011;5038;53.064;8.624;2023-12-28T12:07:13;14.47;;;3.70;;
9997;SDS011;5038;53.064;8.624;2023-12-28T12:09:42;9.83;;;4.40;;
9997;SDS011;5038;53.064;8.624;2023-12-28T12:12:11;9.40;;;3.80;;
9997;SDS011;5038;53.064;8.624;2023-12-28T12:14:39;13.63;;;3.87;;
9997;SDS011;5038;53.064;8.624;2023-12-28T12:17:09;11.77;;;4.10;;
9997;SDS011;5038;53.064;8.624;2023-12-28T12:19:38;14.30;;;4.50;;
9997;SDS011;5038;53.064;8.624;2023-12-28T12:22:07;9.80;;;4.40;;
9997;SDS011;5038;53.064;8.624;2023-12-28T12:24:35;9.03;;;3.70;;
9997;SDS011;5038;53.064;8.624;2023-12-28T12:27:04;9.80;;;3.97;;
9997;SDS011;5038;53.064;8.624;2023-12-28T12:29:33;9.23;;;4.47;;
9997;SDS011;5038;53.064;8.624;2023-12-28T12:32:01;12.07;;;4.20;;
9997;SDS011;5038;53.064;8.624;2023-12-28T12:34:31;11.17;;;4.40;;
9997;SDS011;5038;53.064;8.624;2023-12-28T12:37:01;23.83;;;4.30;;
9997;SDS011;5038;53.064;8.624;2023-12-28T12:39:29;9.23;;;3.90;;
9997;SDS011;5038;53.064;8.624;2023-12-28T12:41:58;12.40;;;4.27;;
9997;SDS011;5038;53.064;8.624;2023-12-28T12:44:27;10.57;;;3.90;;
9997;SDS011;5038;53.064;8.624;2023-12-28T12:46:59;8.80;;;4.20;;
9997;SDS011;5038;53.064;8.624;2023-12-28T12:49:27;10.73;;;4.10;;
9997;SDS011;5038;53.064;8.624;2023-12-28T12:51:57;11.47;;;4.40;;
9997;SDS011;5038;53.064;8.624;2023-12-28T12:54:29;9.57;;;3.60;;
9997;SDS011;5038;53.064;8.624;2023-12-28T12:56:58;11.57;;;3.60;;
9997;SDS011;5038;53.064;8.624;2023-12-28T12:59:26;10.47;;;3.60;;
9997;SDS011;5038;53.064;8.624;2023-12-28T13:01:55;9.60;;;3.37;;
9997;SDS011;5038;53.064;8.624;2023-12-28T13:04:23;8.73;;;4.07;;
9997;SDS011;5038;53.064;8.624;2023-12-28T13:06:52;12.03;;;4.03;;
9997;SDS011;5038;53.064;8.624;2023-12-28T13:09:22;12.00;;;4.03;;
9997;SDS011;5038;53.064;8.624;2023-12-28T13:11:50;9.53;;;3.90;;
9997;SDS011;5038;53.064;8.624;2023-12-28T13:14:19;10.63;;;4.20;;
9997;SDS011;5038;53.064;8.624;2023-12-28T13:16:47;12.73;;;3.93;;
9997;SDS011;5038;53.064;8.624;2023-12-28T13:19:24;8.67;;;3.07;;
9997;SDS011;5038;53.064;8.624;2023-12-28T13:21:52;13.93;;;4.53;;
9997;SDS011;5038;53.064;8.624;2023-12-28T13:24:22;9.17;;;4.37;;
9997;SDS011;5038;53.064;8.624;2023-12-28T13:26:51;13.67;;;4.03;;
9997;SDS011;5038;53.064;8.624;2023-12-28T13:29:19;11.97;;;4.13;;
9997;SDS011;5038;53.064;8.624;2023-12-28T13:31:47;10.87;;;3.30;;
9997;SDS011;5038;53.064;8.624;2023-12-28T13:34:17;9.03;;;3.17;;
9997;SDS011;5038;53.064;8.624;2023-12-28T13:36:46;11.47;;;4.00;;
9997;SDS011;5038;53.064;8.624;2023-12-28T13:39:14;7.57;;;3.33;;
9997;SDS011;5038;53.064;8.624;2023-12-28T13:41:45;12.00;;;4.07;;
9997;SDS011;5038;53.064;8.624;2023-12-28T13:44:13;9.37;;;3.70;;
9997;SDS011;5038;53.064;8.624;2023-12-28T13:46:42;8.30;;;3.90;;
9997;SDS011;5038;53.064;8.624;2023-12-28T13:49:10;7.40;;;3.20;;
9997;SDS011;5038;53.064;8.624;2023-12-28T13:51:38;9.77;;;3.67;;
9997;SDS011;5038;53.064;8.624;2023-12-28T13:54:07;8.30;;;3.80;;
9997;SDS011;5038;53.064;8.624;2023-12-28T13:56:35;9.47;;;3.57;;
9997;SDS011;5038;53.064;8.624;2023-12-28T13:59:05;16.37;;;4.40;;
9997;SDS011;5038;53.064;8.624;2023-12-28T14:01:34;10.33;;;3.80;;
9997;SDS011;5038;53.064;8.624;2023-12-28T14:04:02;10.80;;;4.30;;
9997;SDS011;5038;53.064;8.624;2023-12-28T14:06:31;12.63;;;3.90;;
9997;SDS011;5038;53.064;8.624;2023-12-28T14:08:59;12.30;;;4.43;;
9997;SDS011;5038;53.064;8.624;2023-12-28T14:11:28;9.00;;;4.40;;
9997;SDS011;5038;53.064;8.624;2023-12-28T14:13:56;13.30;;;3.80;;
9997;SDS011;5038;53.064;8.624;2023-12-28T14:16:26;13.33;;;4.50;;
9997;SDS011;5038;53.064;8.624;2023-12-28T14:18:54;10.87;;;4.10;;
9997;SDS011;5038;53.064;8.624;2023-12-28T14:21:23;11.13;;;3.73;;
9997;SDS011;5038;53.064;8.624;2023-12-28T14:23:52;10.70;;;4.37;;
9997;SDS011;5038;53.064;8.624;2023-12-28T14:26:21;12.30;;;3.67;;
9997;SDS011;5038;53.064;8.624;2023-12-28T14:28:49;17.87;;;5.40;;
9997;SDS011;5038;53.064;8.624;2023-12-28T14:31:18;9.27;;;4.20;;
9997;SDS011;5038;53.064;8.624;2023-12-28T14:33:49;12.10;;;4.07;;
9997;SDS011;5038;53.064;8.624;2023-12-28T14:36:20;13.77;;;4.17;;
9997;SDS011;5038;53.064;8.624;2023-12-28T14:38:55;13.23;;;4.40;;
9997;SDS011;5038;53.064;8.624;2023-12-28T14:41:23;8.03;;;3.87;;
9997;SDS011;5038;53.064;8.624;2023-12-28T14:43:52;16.17;;;4.43;;
9997;SDS011;5038;53.064;8.624;2023-12-28T14:46:20;13.03;;;3.90;;
9997;SDS011;5038;53.064;8.624;2023-12-28T14:48:50;16.60;;;4.10;;
9997;SDS011;5038;53.064;8.624;2023-12-28T14:51:18;12.07;;;4.60;;
9997;SDS011;5038;53.064;8.624;2023-12-28T14:53:47;13.40;;;5.00;;
9997;SDS011;5038;53.064;8.624;2023-12-28T14:56:16;12.75;;;4.70;;
9997;SDS011;5038;53.064;8.624;2023-12-28T14:58:44;11.80;;;4.60;;
9997;SDS011;5038;53.064;8.624;2023-12-28T15:01:14;10.93;;;3.90;;
9997;SDS011;5038;53.064;8.624;2023-12-28T15:03:43;14.90;;;4.43;;
9997;SDS011;5038;53.064;8.624;2023-12-28T15:06:13;16.23;;;4.70;;
9997;SDS011;5038;53.064;8.624;2023-12-28T15:08:41;14.73;;;4.57;;
9997;SDS011;5038;53.064;8.624;2023-12-28T15:11:10;10.97;;;3.90;;
9997;SDS011;5038;53.064;8.624;2023-12-28T15:13:39;12.13;;;4.00;;
9997;SDS011;5038;53.064;8.624;2023-12-28T15:16:08;11.03;;;4.30;;
9997;SDS011;5038;53.064;8.624;2023-12-28T15:18:38;12.43;;;4.30;;
9997;SDS011;5038;53.064;8.624;2023-12-28T15:21:07;13.97;;;4.43;;
9997;SDS011;5038;53.064;8.624;2023-12-28T15:23:38;14.83;;;5.03;;